sensor_id;sensor_type;location;lat;lon;timestamp;temperature;humidity
37410;DHT22;23275;48.914;12.566;2023-02-11T00:02:24;-3.20;99.90
37410;DHT22;23275;48.914;12.566;2023-02-11T00:04:52;-3.20;99.90
37410;DHT22;23275;48.914;12.566;2023-02-11T00:07:17;-3.30;99.90
37410;DHT22;23275;48.914;12.566;2023-02-11T00:09:43;-3.40;99.90
37410;DHT22;23275;48.914;12.566;2023-02-11T00:12:08;-3.40;99.90
37410;DHT22;23275;48.914;12.566;2023-02-11T00:14:34;-3.50;99.90
37410;DHT22;23275;48.914;12.566;2023-02-11T00:16:59;-3.50;99.90
37410;DHT22;23275;48.914;12.566;2023-02-11T00:19:25;-3.60;99.90
37410;DHT22;23275;48.914;12.566;2023-02-11T00:21:50;-3.60;99.90
37410;DHT22;23275;48.914;12.566;2023-02-11T00:24:16;-3.60;99.90
37410;DHT22;23275;48.914;12.566;2023-02-11T00:26:41;-3.60;99.90
37410;DHT22;23275;48.914;12.566;2023-02-11T00:29:08;-3.60;99.90
37410;DHT22;23275;48.914;12.566;2023-02-11T00:31:34;-3.60;99.90
37410;DHT22;23275;48.914;12.566;2023-02-11T00:33:59;-3.60;99.90
37410;DHT22;23275;48.914;12.566;2023-02-11T00:36:27;-3.60;99.90
37410;DHT22;23275;48.914;12.566;2023-02-11T00:38:54;-3.70;99.90
37410;DHT22;23275;48.914;12.566;2023-02-11T00:41:20;-3.60;99.90
37410;DHT22;23275;48.914;12.566;2023-02-11T00:43:46;-3.70;99.90
37410;DHT22;23275;48.914;12.566;2023-02-11T00:46:12;-3.60;99.90
37410;DHT22;23275;48.914;12.566;2023-02-11T00:48:38;-3.70;99.90
37410;DHT22;23275;48.914;12.566;2023-02-11T00:51:05;-3.70;99.90
37410;DHT22;23275;48.914;12.566;2023-02-11T00:53:31;-3.70;99.90
37410;DHT22;23275;48.914;12.566;2023-02-11T00:55:56;-3.70;99.90
37410;DHT22;23275;48.914;12.566;2023-02-11T00:58:22;-3.70;99.90
37410;DHT22;23275;48.914;12.566;2023-02-11T01:00:48;-3.70;99.90
37410;DHT22;23275;48.914;12.566;2023-02-11T01:03:14;-3.70;99.90
37410;DHT22;23275;48.914;12.566;2023-02-11T01:05:39;-3.70;99.90
37410;DHT22;23275;48.914;12.566;2023-02-11T01:08:05;-3.70;99.90
37410;DHT22;23275;48.914;12.566;2023-02-11T01:10:31;-3.70;99.90
37410;DHT22;23275;48.914;12.566;2023-02-11T01:12:57;-3.70;99.90
37410;DHT22;23275;48.914;12.566;2023-02-11T01:15:23;-3.70;99.90
37410;DHT22;23275;48.914;12.566;2023-02-11T01:17:48;-3.70;99.90
37410;DHT22;23275;48.914;12.566;2023-02-11T01:20:19;-3.80;99.90
37410;DHT22;23275;48.914;12.566;2023-02-11T01:22:45;-3.80;99.90
37410;DHT22;23275;48.914;12.566;2023-02-11T01:25:11;-3.80;99.90
37410;DHT22;23275;48.914;12.566;2023-02-11T01:27:37;-3.80;99.90
37410;DHT22;23275;48.914;12.566;2023-02-11T01:30:05;-3.80;99.90
37410;DHT22;23275;48.914;12.566;2023-02-11T01:32:31;-3.80;99.90
37410;DHT22;23275;48.914;12.566;2023-02-11T01:34:57;-3.70;99.90
37410;DHT22;23275;48.914;12.566;2023-02-11T01:37:22;-3.70;99.90
37410;DHT22;23275;48.914;12.566;2023-02-11T01:39:48;-3.80;99.90
37410;DHT22;23275;48.914;12.566;2023-02-11T01:42:19;-3.80;99.90
37410;DHT22;23275;48.914;12.566;2023-02-11T01:44:49;-3.80;99.90
37410;DHT22;23275;48.914;12.566;2023-02-11T01:47:16;-3.80;99.90
37410;DHT22;23275;48.914;12.566;2023-02-11T01:49:45;-3.80;99.90
37410;DHT22;23275;48.914;12.566;2023-02-11T01:52:22;-3.80;99.90
37410;DHT22;23275;48.914;12.566;2023-02-11T01:54:52;-3.90;99.90
37410;DHT22;23275;48.914;12.566;2023-02-11T01:57:40;-3.80;99.90
37410;DHT22;23275;48.914;12.566;2023-02-11T02:02:53;-3.90;99.90
37410;DHT22;23275;48.914;12.566;2023-02-11T02:10:30;-3.90;99.90
37410;DHT22;23275;48.914;12.566;2023-02-11T02:12:57;-3.90;99.90
37410;DHT22;23275;48.914;12.566;2023-02-11T02:15:24;-4.00;99.90
37410;DHT22;23275;48.914;12.566;2023-02-11T02:21:17;-4.00;99.90
37410;DHT22;23275;48.914;12.566;2023-02-11T02:35:25;-4.00;99.90
37410;DHT22;23275;48.914;12.566;2023-02-11T02:38:12;-4.10;99.90
37410;DHT22;23275;48.914;12.566;2023-02-11T02:40:52;-4.10;99.90
37410;DHT22;23275;48.914;12.566;2023-02-11T02:43:20;-4.10;99.90
37410;DHT22;23275;48.914;12.566;2023-02-11T02:45:46;-4.10;99.90
37410;DHT22;23275;48.914;12.566;2023-02-11T02:48:27;-4.10;99.90
37410;DHT22;23275;48.914;12.566;2023-02-11T02:51:13;-4.10;99.90
37410;DHT22;23275;48.914;12.566;2023-02-11T02:56:33;-4.10;99.90
37410;DHT22;23275;48.914;12.566;2023-02-11T02:59:22;-4.20;99.90
37410;DHT22;23275;48.914;12.566;2023-02-11T03:02:04;-4.20;99.90
37410;DHT22;23275;48.914;12.566;2023-02-11T03:04:47;-4.20;99.90
37410;DHT22;23275;48.914;12.566;2023-02-11T03:10:01;-4.30;99.90
37410;DHT22;23275;48.914;12.566;2023-02-11T03:12:30;-4.20;99.90
37410;DHT22;23275;48.914;12.566;2023-02-11T03:14:58;-4.20;99.90
37410;DHT22;23275;48.914;12.566;2023-02-11T03:17:25;-4.20;99.90
37410;DHT22;23275;48.914;12.566;2023-02-11T03:19:52;-4.10;99.90
37410;DHT22;23275;48.914;12.566;2023-02-11T03:22:29;-4.10;99.90
37410;DHT22;23275;48.914;12.566;2023-02-11T03:24:56;-4.10;99.90
37410;DHT22;23275;48.914;12.566;2023-02-11T03:27:46;-4.10;99.90
37410;DHT22;23275;48.914;12.566;2023-02-11T03:30:25;-4.00;99.90
37410;DHT22;23275;48.914;12.566;2023-02-11T03:33:17;-4.00;99.90
37410;DHT22;23275;48.914;12.566;2023-02-11T03:35:54;-4.00;99.90
37410;DHT22;23275;48.914;12.566;2023-02-11T03:38:25;-4.10;99.90
37410;DHT22;23275;48.914;12.566;2023-02-11T03:40:54;-4.10;99.90
37410;DHT22;23275;48.914;12.566;2023-02-11T03:43:27;-4.20;99.90
37410;DHT22;23275;48.914;12.566;2023-02-11T03:45:55;-4.20;99.90
37410;DHT22;23275;48.914;12.566;2023-02-11T03:48:30;-4.20;99.90
37410;DHT22;23275;48.914;12.566;2023-02-11T03:51:00;-4.20;99.90
37410;DHT22;23275;48.914;12.566;2023-02-11T03:53:26;-4.30;99.90
37410;DHT22;23275;48.914;12.566;2023-02-11T03:55:54;-4.40;99.90
37410;DHT22;23275;48.914;12.566;2023-02-11T03:58:21;-4.40;99.90
37410;DHT22;23275;48.914;12.566;2023-02-11T04:00:47;-4.40;99.90
37410;DHT22;23275;48.914;12.566;2023-02-11T04:03:13;-4.40;99.90
37410;DHT22;23275;48.914;12.566;2023-02-11T04:05:39;-4.40;99.90
37410;DHT22;23275;48.914;12.566;2023-02-11T04:08:04;-4.40;99.90
37410;DHT22;23275;48.914;12.566;2023-02-11T04:10:30;-4.30;99.90
37410;DHT22;23275;48.914;12.566;2023-02-11T04:12:56;-4.20;99.90
37410;DHT22;23275;48.914;12.566;2023-02-11T04:15:21;-4.20;99.90
37410;DHT22;23275;48.914;12.566;2023-02-11T04:17:47;-4.10;99.90
37410;DHT22;23275;48.914;12.566;2023-02-11T04:20:13;-4.00;99.90
37410;DHT22;23275;48.914;12.566;2023-02-11T04:22:38;-4.00;99.90
37410;DHT22;23275;48.914;12.566;2023-02-11T04:25:05;-3.90;99.90
37410;DHT22;23275;48.914;12.566;2023-02-11T04:27:31;-3.90;99.90
37410;DHT22;23275;48.914;12.566;2023-02-11T04:29:56;-3.80;99.90
37410;DHT22;23275;48.914;12.566;2023-02-11T04:32:22;-3.80;99.90
37410;DHT22;23275;48.914;12.566;2023-02-11T04:34:48;-3.70;99.90
37410;DHT22;23275;48.914;12.566;2023-02-11T04:37:14;-3.60;99.90
37410;DHT22;23275;48.914;12.566;2023-02-11T04:39:39;-3.60;99.90
37410;DHT22;23275;48.914;12.566;2023-02-11T04:42:05;-3.60;99.90
37410;DHT22;23275;48.914;12.566;2023-02-11T04:44:31;-3.60;99.90
37410;DHT22;23275;48.914;12.566;2023-02-11T04:46:56;-3.70;99.90
37410;DHT22;23275;48.914;12.566;2023-02-11T04:49:22;-3.70;99.90
37410;DHT22;23275;48.914;12.566;2023-02-11T04:51:48;-3.80;99.90
37410;DHT22;23275;48.914;12.566;2023-02-11T04:54:13;-3.70;99.90
37410;DHT22;23275;48.914;12.566;2023-02-11T04:56:39;-3.80;99.90
37410;DHT22;23275;48.914;12.566;2023-02-11T04:59:05;-3.70;99.90
37410;DHT22;23275;48.914;12.566;2023-02-11T05:01:30;-3.80;99.90
37410;DHT22;23275;48.914;12.566;2023-02-11T05:03:56;-3.70;99.90
37410;DHT22;23275;48.914;12.566;2023-02-11T05:06:22;-3.70;99.90
37410;DHT22;23275;48.914;12.566;2023-02-11T05:08:47;-3.60;99.90
37410;DHT22;23275;48.914;12.566;2023-02-11T05:11:16;-3.60;99.90
37410;DHT22;23275;48.914;12.566;2023-02-11T05:13:42;-3.70;99.90
37410;DHT22;23275;48.914;12.566;2023-02-11T05:16:08;-3.60;99.90
37410;DHT22;23275;48.914;12.566;2023-02-11T05:18:36;-3.60;99.90
37410;DHT22;23275;48.914;12.566;2023-02-11T05:21:13;-3.50;99.90
37410;DHT22;23275;48.914;12.566;2023-02-11T05:23:40;-3.50;99.90
37410;DHT22;23275;48.914;12.566;2023-02-11T05:26:06;-3.40;99.90
37410;DHT22;23275;48.914;12.566;2023-02-11T05:28:33;-3.40;99.90
37410;DHT22;23275;48.914;12.566;2023-02-11T05:30:59;-3.40;99.90
37410;DHT22;23275;48.914;12.566;2023-02-11T05:33:25;-3.40;99.90
37410;DHT22;23275;48.914;12.566;2023-02-11T05:35:51;-3.40;99.90
37410;DHT22;23275;48.914;12.566;2023-02-11T05:38:16;-3.40;99.90
37410;DHT22;23275;48.914;12.566;2023-02-11T05:40:43;-3.40;99.90
37410;DHT22;23275;48.914;12.566;2023-02-11T05:43:09;-3.40;99.90
37410;DHT22;23275;48.914;12.566;2023-02-11T05:45:34;-3.30;99.90
37410;DHT22;23275;48.914;12.566;2023-02-11T05:48:00;-3.30;99.90
37410;DHT22;23275;48.914;12.566;2023-02-11T05:50:25;-3.30;99.90
37410;DHT22;23275;48.914;12.566;2023-02-11T05:52:51;-3.30;99.90
37410;DHT22;23275;48.914;12.566;2023-02-11T05:55:16;-3.30;99.90
37410;DHT22;23275;48.914;12.566;2023-02-11T05:57:42;-3.30;99.90
37410;DHT22;23275;48.914;12.566;2023-02-11T06:00:09;-3.30;99.90
37410;DHT22;23275;48.914;12.566;2023-02-11T06:02:34;-3.30;99.90
37410;DHT22;23275;48.914;12.566;2023-02-11T06:05:00;-3.30;99.90
37410;DHT22;23275;48.914;12.566;2023-02-11T06:07:26;-3.30;99.90
37410;DHT22;23275;48.914;12.566;2023-02-11T06:09:51;-3.30;99.90
37410;DHT22;23275;48.914;12.566;2023-02-11T06:12:17;-3.30;99.90
37410;DHT22;23275;48.914;12.566;2023-02-11T06:14:42;-3.30;99.90
37410;DHT22;23275;48.914;12.566;2023-02-11T06:17:08;-3.30;99.90
37410;DHT22;23275;48.914;12.566;2023-02-11T06:19:33;-3.20;99.90
37410;DHT22;23275;48.914;12.566;2023-02-11T06:21:59;-3.10;99.90
37410;DHT22;23275;48.914;12.566;2023-02-11T06:24:25;-3.10;99.90
37410;DHT22;23275;48.914;12.566;2023-02-11T06:26:50;-3.00;99.90
37410;DHT22;23275;48.914;12.566;2023-02-11T06:29:16;-2.90;99.90
37410;DHT22;23275;48.914;12.566;2023-02-11T06:31:42;-2.90;99.90
37410;DHT22;23275;48.914;12.566;2023-02-11T06:34:08;-2.90;99.90
37410;DHT22;23275;48.914;12.566;2023-02-11T06:36:35;-2.90;99.90
37410;DHT22;23275;48.914;12.566;2023-02-11T06:39:00;-2.90;99.90
37410;DHT22;23275;48.914;12.566;2023-02-11T06:41:26;-2.80;99.90
37410;DHT22;23275;48.914;12.566;2023-02-11T06:43:53;-2.80;99.90
37410;DHT22;23275;48.914;12.566;2023-02-11T06:46:18;-2.80;99.90
37410;DHT22;23275;48.914;12.566;2023-02-11T06:48:44;-2.80;99.90
37410;DHT22;23275;48.914;12.566;2023-02-11T06:51:11;-2.80;99.90
37410;DHT22;23275;48.914;12.566;2023-02-11T06:53:42;-2.70;99.90
37410;DHT22;23275;48.914;12.566;2023-02-11T06:56:11;-2.70;99.90
37410;DHT22;23275;48.914;12.566;2023-02-11T06:58:37;-2.70;99.90
37410;DHT22;23275;48.914;12.566;2023-02-11T07:01:05;-2.60;99.90
37410;DHT22;23275;48.914;12.566;2023-02-11T07:03:35;-2.60;99.90
37410;DHT22;23275;48.914;12.566;2023-02-11T07:06:02;-2.60;99.90
37410;DHT22;23275;48.914;12.566;2023-02-11T07:08:28;-2.50;99.90
37410;DHT22;23275;48.914;12.566;2023-02-11T07:10:53;-2.50;99.90
37410;DHT22;23275;48.914;12.566;2023-02-11T07:13:19;-2.40;99.90
37410;DHT22;23275;48.914;12.566;2023-02-11T07:15:44;-2.40;99.90
37410;DHT22;23275;48.914;12.566;2023-02-11T07:18:10;-2.40;99.90
37410;DHT22;23275;48.914;12.566;2023-02-11T07:20:36;-2.40;99.90
37410;DHT22;23275;48.914;12.566;2023-02-11T07:23:03;-2.30;99.90
37410;DHT22;23275;48.914;12.566;2023-02-11T07:25:29;-2.40;99.90
37410;DHT22;23275;48.914;12.566;2023-02-11T07:27:55;-2.40;99.90
37410;DHT22;23275;48.914;12.566;2023-02-11T07:30:21;-2.40;99.90
37410;DHT22;23275;48.914;12.566;2023-02-11T07:32:47;-2.30;99.90
37410;DHT22;23275;48.914;12.566;2023-02-11T07:35:13;-2.30;99.90
37410;DHT22;23275;48.914;12.566;2023-02-11T07:37:39;-2.20;99.90
37410;DHT22;23275;48.914;12.566;2023-02-11T07:40:06;-2.20;99.90
37410;DHT22;23275;48.914;12.566;2023-02-11T07:42:33;-2.10;99.90
37410;DHT22;23275;48.914;12.566;2023-02-11T07:44:59;-2.00;99.90
37410;DHT22;23275;48.914;12.566;2023-02-11T07:47:25;-2.00;99.90
37410;DHT22;23275;48.914;12.566;2023-02-11T07:49:50;-2.00;99.90
37410;DHT22;23275;48.914;12.566;2023-02-11T07:52:16;-1.90;99.90
37410;DHT22;23275;48.914;12.566;2023-02-11T07:54:41;-1.80;99.90
37410;DHT22;23275;48.914;12.566;2023-02-11T07:57:07;-1.70;99.90
37410;DHT22;23275;48.914;12.566;2023-02-11T07:59:32;-1.60;99.90
37410;DHT22;23275;48.914;12.566;2023-02-11T08:01:58;-1.50;99.90
37410;DHT22;23275;48.914;12.566;2023-02-11T08:04:24;-1.50;99.90
37410;DHT22;23275;48.914;12.566;2023-02-11T08:06:49;-1.60;99.90
37410;DHT22;23275;48.914;12.566;2023-02-11T08:09:17;-1.60;99.90
37410;DHT22;23275;48.914;12.566;2023-02-11T08:11:43;-1.50;99.90
37410;DHT22;23275;48.914;12.566;2023-02-11T08:14:10;-1.50;99.90
37410;DHT22;23275;48.914;12.566;2023-02-11T08:16:36;-1.40;99.90
37410;DHT22;23275;48.914;12.566;2023-02-11T08:19:07;-1.40;99.90
37410;DHT22;23275;48.914;12.566;2023-02-11T08:21:33;-1.20;99.90
37410;DHT22;23275;48.914;12.566;2023-02-11T08:24:00;-1.00;99.90
37410;DHT22;23275;48.914;12.566;2023-02-11T08:26:29;-1.00;99.90
37410;DHT22;23275;48.914;12.566;2023-02-11T08:28:56;-0.80;99.90
37410;DHT22;23275;48.914;12.566;2023-02-11T08:31:25;-0.70;99.90
37410;DHT22;23275;48.914;12.566;2023-02-11T08:33:52;-0.40;99.90
37410;DHT22;23275;48.914;12.566;2023-02-11T08:36:23;0.10;99.90
37410;DHT22;23275;48.914;12.566;2023-02-11T08:38:49;1.90;99.90
37410;DHT22;23275;48.914;12.566;2023-02-11T08:41:16;2.20;99.90
37410;DHT22;23275;48.914;12.566;2023-02-11T08:43:43;2.00;99.90
37410;DHT22;23275;48.914;12.566;2023-02-11T08:46:12;1.60;99.90
37410;DHT22;23275;48.914;12.566;2023-02-11T08:48:38;1.10;99.90
37410;DHT22;23275;48.914;12.566;2023-02-11T08:51:08;0.70;99.90
37410;DHT22;23275;48.914;12.566;2023-02-11T08:53:34;0.50;99.90
37410;DHT22;23275;48.914;12.566;2023-02-11T08:56:00;0.30;99.90
37410;DHT22;23275;48.914;12.566;2023-02-11T08:58:26;0.30;99.90
37410;DHT22;23275;48.914;12.566;2023-02-11T09:00:51;0.40;99.90
37410;DHT22;23275;48.914;12.566;2023-02-11T09:03:17;0.50;99.90
37410;DHT22;23275;48.914;12.566;2023-02-11T09:05:44;0.60;99.90
37410;DHT22;23275;48.914;12.566;2023-02-11T09:08:10;0.80;99.90
37410;DHT22;23275;48.914;12.566;2023-02-11T09:10:36;0.80;99.90
37410;DHT22;23275;48.914;12.566;2023-02-11T09:13:02;0.70;99.90
37410;DHT22;23275;48.914;12.566;2023-02-11T09:15:28;0.80;99.90
37410;DHT22;23275;48.914;12.566;2023-02-11T09:17:53;1.00;99.90
37410;DHT22;23275;48.914;12.566;2023-02-11T09:20:19;1.20;99.90
37410;DHT22;23275;48.914;12.566;2023-02-11T09:22:45;1.30;99.90
37410;DHT22;23275;48.914;12.566;2023-02-11T09:25:11;1.40;99.90
37410;DHT22;23275;48.914;12.566;2023-02-11T09:27:37;1.30;99.90
37410;DHT22;23275;48.914;12.566;2023-02-11T09:30:03;1.20;99.90
37410;DHT22;23275;48.914;12.566;2023-02-11T09:32:28;1.20;99.90
37410;DHT22;23275;48.914;12.566;2023-02-11T09:34:54;1.30;99.90
37410;DHT22;23275;48.914;12.566;2023-02-11T09:37:19;1.60;99.90
37410;DHT22;23275;48.914;12.566;2023-02-11T09:39:45;1.80;99.90
37410;DHT22;23275;48.914;12.566;2023-02-11T09:45:28;2.00;99.90
37410;DHT22;23275;48.914;12.566;2023-02-11T09:48:03;2.20;99.90
37410;DHT22;23275;48.914;12.566;2023-02-11T09:50:39;2.50;99.90
37410;DHT22;23275;48.914;12.566;2023-02-11T09:53:14;2.70;99.90
37410;DHT22;23275;48.914;12.566;2023-02-11T09:55:44;2.60;99.90
37410;DHT22;23275;48.914;12.566;2023-02-11T09:58:16;2.60;99.90
37410;DHT22;23275;48.914;12.566;2023-02-11T10:00:51;2.50;99.90
37410;DHT22;23275;48.914;12.566;2023-02-11T10:06:38;2.40;99.90
37410;DHT22;23275;48.914;12.566;2023-02-11T10:11:57;2.90;99.90
37410;DHT22;23275;48.914;12.566;2023-02-11T10:22:54;3.00;99.90
37410;DHT22;23275;48.914;12.566;2023-02-11T10:27:52;2.90;99.90
37410;DHT22;23275;48.914;12.566;2023-02-11T10:30:33;2.80;99.90
37410;DHT22;23275;48.914;12.566;2023-02-11T10:35:48;2.70;99.90
37410;DHT22;23275;48.914;12.566;2023-02-11T10:38:13;2.60;99.90
37410;DHT22;23275;48.914;12.566;2023-02-11T10:40:39;2.50;99.90
37410;DHT22;23275;48.914;12.566;2023-02-11T10:43:09;2.50;99.90
37410;DHT22;23275;48.914;12.566;2023-02-11T10:45:43;2.60;99.90
37410;DHT22;23275;48.914;12.566;2023-02-11T10:51:26;2.80;99.90
37410;DHT22;23275;48.914;12.566;2023-02-11T10:56:57;2.90;99.90
37410;DHT22;23275;48.914;12.566;2023-02-11T10:59:32;3.00;99.90
37410;DHT22;23275;48.914;12.566;2023-02-11T11:02:04;3.10;99.90
37410;DHT22;23275;48.914;12.566;2023-02-11T11:04:41;3.20;99.90
37410;DHT22;23275;48.914;12.566;2023-02-11T11:07:29;3.40;99.90
37410;DHT22;23275;48.914;12.566;2023-02-11T11:10:04;3.40;99.90
37410;DHT22;23275;48.914;12.566;2023-02-11T11:12:35;3.40;99.90
37410;DHT22;23275;48.914;12.566;2023-02-11T11:15:20;3.20;99.90
37410;DHT22;23275;48.914;12.566;2023-02-11T11:17:47;3.10;99.90
37410;DHT22;23275;48.914;12.566;2023-02-11T11:20:26;3.10;99.90
37410;DHT22;23275;48.914;12.566;2023-02-11T11:23:09;2.90;99.90
37410;DHT22;23275;48.914;12.566;2023-02-11T11:25:38;2.90;99.90
37410;DHT22;23275;48.914;12.566;2023-02-11T11:28:15;2.90;99.90
37410;DHT22;23275;48.914;12.566;2023-02-11T11:30:42;3.00;99.90
37410;DHT22;23275;48.914;12.566;2023-02-11T11:33:22;3.00;99.90
37410;DHT22;23275;48.914;12.566;2023-02-11T11:36:07;3.10;99.90
37410;DHT22;23275;48.914;12.566;2023-02-11T11:38:37;3.10;99.90
37410;DHT22;23275;48.914;12.566;2023-02-11T11:41:23;3.10;99.90
37410;DHT22;23275;48.914;12.566;2023-02-11T11:44:19;3.30;99.90
37410;DHT22;23275;48.914;12.566;2023-02-11T11:46:51;3.30;99.90
37410;DHT22;23275;48.914;12.566;2023-02-11T11:49:27;3.40;99.90
37410;DHT22;23275;48.914;12.566;2023-02-11T11:52:17;3.60;99.90
37410;DHT22;23275;48.914;12.566;2023-02-11T11:54:49;3.80;99.90
37410;DHT22;23275;48.914;12.566;2023-02-11T11:57:22;4.00;99.90
37410;DHT22;23275;48.914;12.566;2023-02-11T11:59:49;4.00;99.90
37410;DHT22;23275;48.914;12.566;2023-02-11T12:02:39;4.00;99.90
37410;DHT22;23275;48.914;12.566;2023-02-11T12:05:24;3.90;99.90
37410;DHT22;23275;48.914;12.566;2023-02-11T12:10:50;3.50;99.90
37410;DHT22;23275;48.914;12.566;2023-02-11T12:16:11;3.20;99.90
37410;DHT22;23275;48.914;12.566;2023-02-11T12:27:22;3.50;99.90
37410;DHT22;23275;48.914;12.566;2023-02-11T12:41:28;3.60;99.90
37410;DHT22;23275;48.914;12.566;2023-02-11T12:55:22;3.50;99.90
37410;DHT22;23275;48.914;12.566;2023-02-11T12:57:49;3.40;99.90
37410;DHT22;23275;48.914;12.566;2023-02-11T13:03:30;3.40;99.90
37410;DHT22;23275;48.914;12.566;2023-02-11T13:06:09;3.50;99.90
37410;DHT22;23275;48.914;12.566;2023-02-11T13:08:48;3.50;99.90
37410;DHT22;23275;48.914;12.566;2023-02-11T13:11:40;3.40;99.90
37410;DHT22;23275;48.914;12.566;2023-02-11T13:14:21;3.30;99.90
37410;DHT22;23275;48.914;12.566;2023-02-11T13:16:49;3.30;99.90
37410;DHT22;23275;48.914;12.566;2023-02-11T13:19:33;3.20;99.90
37410;DHT22;23275;48.914;12.566;2023-02-11T13:24:56;3.20;99.90
37410;DHT22;23275;48.914;12.566;2023-02-11T13:28:03;3.20;99.90
37410;DHT22;23275;48.914;12.566;2023-02-11T13:30:36;3.10;99.90
37410;DHT22;23275;48.914;12.566;2023-02-11T13:38:28;3.00;99.90
37410;DHT22;23275;48.914;12.566;2023-02-11T13:43:40;3.00;99.90
37410;DHT22;23275;48.914;12.566;2023-02-11T13:46:10;3.00;99.90
37410;DHT22;23275;48.914;12.566;2023-02-11T13:48:43;3.00;99.90
37410;DHT22;23275;48.914;12.566;2023-02-11T13:51:12;2.90;99.90
37410;DHT22;23275;48.914;12.566;2023-02-11T13:53:54;2.90;99.90
37410;DHT22;23275;48.914;12.566;2023-02-11T13:56:32;2.90;99.90
37410;DHT22;23275;48.914;12.566;2023-02-11T13:59:04;2.90;99.90
37410;DHT22;23275;48.914;12.566;2023-02-11T14:04:33;3.00;99.90
37410;DHT22;23275;48.914;12.566;2023-02-11T14:26:48;3.20;99.90
37410;DHT22;23275;48.914;12.566;2023-02-11T14:32:16;3.30;99.90
37410;DHT22;23275;48.914;12.566;2023-02-11T14:40:40;3.20;99.90
37410;DHT22;23275;48.914;12.566;2023-02-11T14:43:14;3.20;99.90
37410;DHT22;23275;48.914;12.566;2023-02-11T14:45:42;3.10;99.90
37410;DHT22;23275;48.914;12.566;2023-02-11T14:48:15;3.00;99.90
37410;DHT22;23275;48.914;12.566;2023-02-11T14:50:53;3.00;99.90
37410;DHT22;23275;48.914;12.566;2023-02-11T14:53:24;2.90;99.90
37410;DHT22;23275;48.914;12.566;2023-02-11T14:55:51;2.90;99.90
37410;DHT22;23275;48.914;12.566;2023-02-11T14:58:26;2.90;99.90
37410;DHT22;23275;48.914;12.566;2023-02-11T15:00:54;2.90;99.90
37410;DHT22;23275;48.914;12.566;2023-02-11T15:03:41;3.00;99.90
37410;DHT22;23275;48.914;12.566;2023-02-11T15:06:18;3.00;99.90
37410;DHT22;23275;48.914;12.566;2023-02-11T15:08:51;3.00;99.90
37410;DHT22;23275;48.914;12.566;2023-02-11T15:11:20;3.00;99.90
37410;DHT22;23275;48.914;12.566;2023-02-11T15:13:47;3.00;99.90
37410;DHT22;23275;48.914;12.566;2023-02-11T15:16:24;3.00;99.90
37410;DHT22;23275;48.914;12.566;2023-02-11T15:19:00;3.10;99.90
37410;DHT22;23275;48.914;12.566;2023-02-11T15:21:29;3.10;99.90
37410;DHT22;23275;48.914;12.566;2023-02-11T15:24:01;3.20;99.90
37410;DHT22;23275;48.914;12.566;2023-02-11T15:26:28;3.20;99.90
37410;DHT22;23275;48.914;12.566;2023-02-11T15:28:54;3.20;99.90
37410;DHT22;23275;48.914;12.566;2023-02-11T15:31:22;3.20;99.90
37410;DHT22;23275;48.914;12.566;2023-02-11T15:33:49;3.20;99.90
37410;DHT22;23275;48.914;12.566;2023-02-11T15:36:16;3.10;99.90
37410;DHT22;23275;48.914;12.566;2023-02-11T15:38:42;3.10;99.90
37410;DHT22;23275;48.914;12.566;2023-02-11T15:41:33;3.10;99.90
37410;DHT22;23275;48.914;12.566;2023-02-11T15:43:59;3.00;99.90
37410;DHT22;23275;48.914;12.566;2023-02-11T15:46:36;3.00;99.90
37410;DHT22;23275;48.914;12.566;2023-02-11T15:49:03;3.00;99.90
37410;DHT22;23275;48.914;12.566;2023-02-11T15:51:31;3.00;99.90
37410;DHT22;23275;48.914;12.566;2023-02-11T15:54:01;2.90;99.90
37410;DHT22;23275;48.914;12.566;2023-02-11T15:56:40;2.90;99.90
37410;DHT22;23275;48.914;12.566;2023-02-11T15:59:21;2.90;99.90
37410;DHT22;23275;48.914;12.566;2023-02-11T16:01:51;2.90;99.90
37410;DHT22;23275;48.914;12.566;2023-02-11T16:04:22;2.80;99.90
37410;DHT22;23275;48.914;12.566;2023-02-11T16:06:49;2.80;99.90
37410;DHT22;23275;48.914;12.566;2023-02-11T16:17:12;2.80;99.90
37410;DHT22;23275;48.914;12.566;2023-02-11T16:19:48;2.70;99.90
37410;DHT22;23275;48.914;12.566;2023-02-11T16:22:17;2.70;99.90
37410;DHT22;23275;48.914;12.566;2023-02-11T16:24:46;2.70;99.90
37410;DHT22;23275;48.914;12.566;2023-02-11T16:29:56;2.70;99.90
37410;DHT22;23275;48.914;12.566;2023-02-11T16:32:27;2.60;99.90
37410;DHT22;23275;48.914;12.566;2023-02-11T16:34:55;2.60;99.90
37410;DHT22;23275;48.914;12.566;2023-02-11T16:37:22;2.60;99.90
37410;DHT22;23275;48.914;12.566;2023-02-11T16:39:49;2.60;99.90
37410;DHT22;23275;48.914;12.566;2023-02-11T16:42:17;2.50;99.90
37410;DHT22;23275;48.914;12.566;2023-02-11T16:44:42;2.50;99.90
37410;DHT22;23275;48.914;12.566;2023-02-11T16:47:22;2.50;99.90
37410;DHT22;23275;48.914;12.566;2023-02-11T16:49:47;2.50;99.90
37410;DHT22;23275;48.914;12.566;2023-02-11T16:52:14;2.50;99.90
37410;DHT22;23275;48.914;12.566;2023-02-11T16:54:40;2.40;99.90
37410;DHT22;23275;48.914;12.566;2023-02-11T16:57:19;2.40;99.90
37410;DHT22;23275;48.914;12.566;2023-02-11T16:59:45;2.40;99.90
37410;DHT22;23275;48.914;12.566;2023-02-11T17:02:22;2.40;99.90
37410;DHT22;23275;48.914;12.566;2023-02-11T17:04:51;2.20;99.90
37410;DHT22;23275;48.914;12.566;2023-02-11T17:07:17;2.20;99.90
37410;DHT22;23275;48.914;12.566;2023-02-11T17:09:42;2.20;99.90
37410;DHT22;23275;48.914;12.566;2023-02-11T17:12:08;2.10;99.90
37410;DHT22;23275;48.914;12.566;2023-02-11T17:14:33;2.10;99.90
37410;DHT22;23275;48.914;12.566;2023-02-11T17:16:59;2.10;99.90
37410;DHT22;23275;48.914;12.566;2023-02-11T17:19:26;2.20;99.90
37410;DHT22;23275;48.914;12.566;2023-02-11T17:21:52;2.20;99.90
37410;DHT22;23275;48.914;12.566;2023-02-11T17:24:19;2.20;99.90
37410;DHT22;23275;48.914;12.566;2023-02-11T17:26:45;2.20;99.90
37410;DHT22;23275;48.914;12.566;2023-02-11T17:29:14;2.20;99.90
37410;DHT22;23275;48.914;12.566;2023-02-11T17:31:40;2.30;99.90
37410;DHT22;23275;48.914;12.566;2023-02-11T17:34:07;2.30;99.90
37410;DHT22;23275;48.914;12.566;2023-02-11T17:36:32;2.30;99.90
37410;DHT22;23275;48.914;12.566;2023-02-11T17:38:59;2.30;99.90
37410;DHT22;23275;48.914;12.566;2023-02-11T17:41:26;2.30;99.90
37410;DHT22;23275;48.914;12.566;2023-02-11T17:43:52;2.30;99.90
37410;DHT22;23275;48.914;12.566;2023-02-11T17:46:17;2.30;99.90
37410;DHT22;23275;48.914;12.566;2023-02-11T17:48:43;2.30;99.90
37410;DHT22;23275;48.914;12.566;2023-02-11T17:51:24;2.30;99.90
37410;DHT22;23275;48.914;12.566;2023-02-11T17:53:51;2.30;99.90
37410;DHT22;23275;48.914;12.566;2023-02-11T17:56:17;2.20;99.90
37410;DHT22;23275;48.914;12.566;2023-02-11T17:58:42;2.20;99.90
37410;DHT22;23275;48.914;12.566;2023-02-11T18:01:08;2.20;99.90
37410;DHT22;23275;48.914;12.566;2023-02-11T18:03:34;2.20;99.90
37410;DHT22;23275;48.914;12.566;2023-02-11T18:06:03;2.20;99.90
37410;DHT22;23275;48.914;12.566;2023-02-11T18:08:29;2.20;99.90